LTAH

Afyon Airport

Afyonkarahisar, Turkey
TAF LTAH 171340Z 1715/1724 32012KT 9999 SCT035 BECMG 1718/1720 CAVOK
Issued Valid From Valid To
Aug-17 @ 13:40 UTC
(an hour ago)
Aug-17 @ 15:00 UTC
(in 5 minutes)
Aug-18 @ 00:00 UTC
(in 9 hours)
Aug-17 @ 15:00 to Aug-17 @ 18:00
TAF LTAH 171340Z 1715/1724 32012KT 9999 SCT035
Wind Visibility Clouds
320° at 12 knots 10,000+ meters
  • Scattered at 3,500' AGL
Becoming Aug-17 @ 18:00 to Aug-18 @ 00:00
BECMG 1718/1720 CAVOK
Wind Visibility Clouds Conditions
320° at 12 knots 10,000+ meters
  • No significant clouds
TAF LTAH 171340Z 1715/1724 32012KT 9999 SCT035 BECMG 1718/1720 CAVOK
Issued Aug-17 @ 13:40 UTC
(an hour ago)
Valid From Aug-17 @ 15:00 UTC
(in 5 minutes)
Valid To Aug-18 @ 00:00 UTC
(in 9 hours)
Aug-17 @ 15:00 - Aug-17 @ 18:00
Wind Visibility
320° at 12 knots 10,000+ meters
Clouds
  • Scattered at 3,500' AGL
Becoming Aug-17 @ 18:00 - Aug-18 @ 00:00
Wind Visibility
320° at 12 knots 10,000+ meters
Clouds
  • No significant clouds
Conditions